Time;durP1;ratioP1;P1;durP2;ratioP2;P2;SDS_P1;SDS_P2;PMS_P1;PMS_P2;Temp;Humidity;BMP_temperature;BMP_pressure;BME280_temperature;BME280_humidity;BME280_pressure;Samples;Min_cycle;Max_cycle;Signal;HPM_P1;HPM_P2
2023/06/16 00:01:23;;;;;;;6.00;5.50;;;;;;;16.59;93.46;100283.50;5079165;28;20208;-75
2023/06/16 00:03:49;;;;;;;5.93;5.37;;;;;;;16.52;93.01;100279.38;5079039;28;20193;-76
2023/06/16 00:06:16;;;;;;;5.50;5.10;;;;;;;16.45;93.28;100283.09;5083909;28;20181;-75
2023/06/16 00:08:44;;;;;;;5.57;5.17;;;;;;;16.41;93.52;100282.31;5084042;28;20178;-74
2023/06/16 00:11:13;;;;;;;5.67;5.27;;;;;;;16.40;93.90;100277.16;5079102;28;20315;-75
2023/06/16 00:13:39;;;;;;;5.73;5.33;;;;;;;16.40;94.20;100279.78;5079785;28;20658;-76
2023/06/16 00:16:04;;;;;;;6.20;5.60;;;;;;;16.39;94.60;100280.69;5082222;28;20198;-76
2023/06/16 00:18:31;;;;;;;5.50;5.00;;;;;;;16.36;95.08;100275.56;5077257;28;20235;-75
2023/06/16 00:21:00;;;;;;;6.03;5.63;;;;;;;16.32;95.17;100281.81;5081078;28;21144;-75
2023/06/16 00:23:26;;;;;;;6.63;5.33;;;;;;;16.27;94.94;100284.53;5091415;28;20268;-76
2023/06/16 00:25:52;;;;;;;6.43;5.87;;;;;;;16.19;94.77;100284.78;5080441;28;20292;-75
2023/06/16 00:28:17;;;;;;;5.73;5.33;;;;;;;16.11;94.80;100287.66;5074412;28;20708;-75
2023/06/16 00:30:43;;;;;;;6.03;5.50;;;;;;;16.05;94.69;100287.88;5077844;28;20236;-75
2023/06/16 00:33:10;;;;;;;5.40;5.00;;;;;;;16.02;94.98;100284.50;5076677;28;20276;-75
2023/06/16 00:35:35;;;;;;;5.87;5.47;;;;;;;15.98;95.45;100281.97;5080432;28;20185;-75
2023/06/16 00:38:00;;;;;;;7.23;5.30;;;;;;;15.97;95.76;100282.88;5081264;28;20211;-75
2023/06/16 00:40:26;;;;;;;5.60;5.10;;;;;;;15.94;96.09;100282.97;5083507;28;20208;-75
2023/06/16 00:42:53;;;;;;;5.70;5.30;;;;;;;15.89;96.16;100279.66;5080251;28;20555;-75
2023/06/16 00:45:19;;;;;;;5.70;5.17;;;;;;;15.87;96.28;100284.09;5083094;28;22258;-75
2023/06/16 00:47:44;;;;;;;5.80;5.30;;;;;;;15.83;96.33;100285.88;5078557;28;20180;-75
2023/06/16 00:50:11;;;;;;;5.77;5.33;;;;;;;15.80;96.94;100282.53;5081535;28;20223;-75
2023/06/16 00:52:38;;;;;;;6.00;5.53;;;;;;;15.78;97.30;100279.97;5085361;28;20183;-75
2023/06/16 00:55:08;;;;;;;5.90;5.40;;;;;;;15.77;97.63;100286.09;5086953;28;20204;-75
2023/06/16 00:57:34;;;;;;;5.93;5.43;;;;;;;15.77;97.81;100285.22;5077921;28;20292;-75
2023/06/16 01:00:00;;;;;;;5.70;5.30;;;;;;;15.74;97.33;100278.34;5070713;28;20243;-76
2023/06/16 01:02:26;;;;;;;5.67;5.23;;;;;;;15.70;97.89;100288.03;5078305;28;20232;-75
2023/06/16 01:04:52;;;;;;;5.60;5.20;;;;;;;15.67;97.70;100290.72;5076233;28;20189;-76
2023/06/16 01:07:29;;;;;;;5.87;5.37;;;;;;;15.63;96.73;100283.03;5085531;28;20189;-76
2023/06/16 01:10:13;;;;;;;5.80;5.30;;;;;;;15.53;96.06;100285.06;5087304;28;20222;-76
2023/06/16 01:12:48;;;;;;;6.10;5.60;;;;;;;15.47;95.95;100286.09;5084105;28;20322;-76
2023/06/16 01:15:22;;;;;;;5.23;4.93;;;;;;;15.45;96.46;100277.47;5096777;28;20285;-75
2023/06/16 01:17:50;;;;;;;5.37;5.07;;;;;;;15.45;97.12;100290.50;5080366;28;20200;-75
2023/06/16 01:20:37;;;;;;;5.97;5.47;;;;;;;15.46;97.28;100291.34;5100804;28;20215;-76
2023/06/16 01:23:25;;;;;;;5.70;5.30;;;;;;;15.46;97.65;100294.81;5093532;28;20314;-75
2023/06/16 01:25:53;;;;;;;6.00;5.60;;;;;;;15.45;98.06;100292.25;5080765;28;20632;-75
2023/06/16 01:28:21;;;;;;;5.70;5.20;;;;;;;15.42;97.67;100285.38;5084065;28;20281;-75
2023/06/16 01:30:50;;;;;;;5.90;5.50;;;;;;;15.42;98.44;100292.34;5080356;28;20205;-75
2023/06/16 01:33:18;;;;;;;6.07;5.60;;;;;;;15.44;98.77;100293.13;5080841;28;20804;-76
2023/06/16 01:35:46;;;;;;;5.80;5.40;;;;;;;15.44;99.08;100291.41;5088629;28;20573;-75
2023/06/16 01:38:12;;;;;;;5.63;5.23;;;;;;;15.44;99.06;100288.81;5081000;28;20235;-75
2023/06/16 01:40:39;;;;;;;5.83;5.43;;;;;;;15.42;98.51;100287.16;5076105;28;20208;-74
2023/06/16 01:43:05;;;;;;;5.73;5.33;;;;;;;15.39;97.53;100285.47;5083308;28;20579;-75
2023/06/16 01:45:31;;;;;;;5.33;4.93;;;;;;;15.38;97.59;100291.56;5088414;28;20189;-74
2023/06/16 01:47:57;;;;;;;6.13;5.63;;;;;;;15.37;97.91;100285.53;5095500;28;20203;-75
2023/06/16 01:50:23;;;;;;;6.33;5.60;;;;;;;15.36;98.00;100283.81;5080550;28;20221;-75
2023/06/16 01:52:48;;;;;;;5.57;5.17;;;;;;;15.34;97.70;100283.00;5090772;28;20642;-75
2023/06/16 01:55:13;;;;;;;5.50;5.10;;;;;;;15.31;97.39;100284.84;5081242;28;20189;-74
2023/06/16 01:57:39;;;;;;;5.70;5.30;;;;;;;15.29;97.16;100284.03;5080187;28;20661;-74
2023/06/16 02:00:14;;;;;;;6.17;5.67;;;;;;;15.23;96.76;100287.66;5080409;28;20770;-75
2023/06/16 02:02:45;;;;;;;6.50;6.00;;;;;;;15.15;96.22;100289.63;5090690;28;20199;-74
2023/06/16 02:05:12;;;;;;;6.80;6.30;;;;;;;15.07;96.53;100284.63;5085909;28;20267;-75
2023/06/16 02:07:41;;;;;;;6.63;6.17;;;;;;;15.03;96.68;100293.44;5082466;28;20180;-74
2023/06/16 02:10:07;;;;;;;6.53;6.03;;;;;;;14.98;96.76;100293.53;5081009;28;20210;-75
2023/06/16 02:12:33;;;;;;;6.93;6.43;;;;;;;14.95;97.19;100291.03;5083065;28;20203;-75
2023/06/16 02:15:00;;;;;;;7.17;6.60;;;;;;;14.88;97.15;100284.28;5085396;28;20214;-75
2023/06/16 02:17:26;;;;;;;6.10;5.63;;;;;;;14.81;97.39;100290.56;5083887;28;20215;-75
2023/06/16 02:19:55;;;;;;;6.97;6.23;;;;;;;14.78;97.71;100296.69;5082324;28;20210;-75
2023/06/16 02:22:21;;;;;;;6.37;5.87;;;;;;;14.77;97.77;100292.38;5079094;28;20903;-74
2023/06/16 02:24:48;;;;;;;6.83;6.23;;;;;;;14.80;97.89;100299.28;5083655;28;20178;-75
2023/06/16 02:27:14;;;;;;;6.00;5.50;;;;;;;14.80;97.86;100299.28;5079448;28;20184;-74
2023/06/16 02:29:40;;;;;;;6.47;5.97;;;;;;;14.78;97.63;100301.91;5086369;28;20718;-74
2023/06/16 02:32:06;;;;;;;6.17;5.67;;;;;;;14.77;97.71;100300.19;5078415;27;20232;-74
2023/06/16 02:34:32;;;;;;;6.43;6.03;;;;;;;14.79;98.14;100301.00;5101477;27;20236;-74
2023/06/16 02:36:58;;;;;;;5.93;5.43;;;;;;;14.82;98.15;100302.69;5080416;28;20197;-74
2023/06/16 02:39:23;;;;;;;5.83;5.43;;;;;;;14.83;98.21;100297.44;5081160;28;21032;-74
2023/06/16 02:41:49;;;;;;;4.70;4.40;;;;;;;14.86;98.53;100301.69;5081155;28;20219;-76
2023/06/16 02:44:15;;;;;;;5.97;5.37;;;;;;;14.89;99.12;100293.78;5086415;28;20599;-74
2023/06/16 02:46:40;;;;;;;5.40;5.00;;;;;;;14.91;99.50;100298.06;5086004;28;20723;-75
2023/06/16 02:49:06;;;;;;;6.10;5.60;;;;;;;14.93;99.63;100290.22;5080493;28;20322;-75
2023/06/16 02:51:31;;;;;;;5.77;5.30;;;;;;;14.92;99.55;100299.78;5082706;28;20676;-74
2023/06/16 02:53:56;;;;;;;7.50;6.13;;;;;;;14.89;99.16;100292.06;5082039;28;20955;-76
2023/06/16 02:56:23;;;;;;;6.43;5.93;;;;;;;14.85;99.00;100290.44;5082724;28;20183;-75
2023/06/16 02:58:49;;;;;;;5.97;5.37;;;;;;;14.81;99.29;100293.16;5072674;28;20301;-75
2023/06/16 03:01:14;;;;;;;6.00;5.60;;;;;;;14.77;99.30;100287.16;5083778;28;20203;-75
2023/06/16 03:03:40;;;;;;;6.00;5.50;;;;;;;14.74;99.38;100292.47;5102940;27;20195;-75
2023/06/16 03:06:05;;;;;;;6.10;5.60;;;;;;;14.69;99.25;100291.72;5084222;28;20276;-74
2023/06/16 03:08:30;;;;;;;6.37;5.67;;;;;;;14.66;99.32;100286.56;5082808;28;20177;-76
2023/06/16 03:10:56;;;;;;;6.40;5.90;;;;;;;14.61;99.47;100292.72;5076201;28;20209;-75
2023/06/16 03:13:21;;;;;;;5.87;5.47;;;;;;;14.57;99.12;100293.72;5084460;28;20177;-75
2023/06/16 03:15:46;;;;;;;6.70;6.10;;;;;;;14.52;99.47;100298.19;5095730;28;20221;-75
2023/06/16 03:18:12;;;;;;;7.53;6.77;;;;;;;14.46;99.26;100301.81;5078063;28;20247;-75
2023/06/16 03:20:39;;;;;;;6.17;5.67;;;;;;;14.42;99.57;100299.31;5073931;28;20245;-74
2023/06/16 03:23:04;;;;;;;6.30;5.80;;;;;;;14.38;99.75;100300.28;5081977;28;20184;-74
2023/06/16 03:25:35;;;;;;;6.70;6.10;;;;;;;14.37;100.00;100302.00;5080607;28;20186;-75
2023/06/16 03:28:00;;;;;;;6.13;5.63;;;;;;;14.38;100.00;100311.53;5088634;28;20193;-74
2023/06/16 03:30:25;;;;;;;6.50;6.00;;;;;;;14.37;100.00;100308.97;5078590;28;20209;-74
2023/06/16 03:32:51;;;;;;;6.90;6.30;;;;;;;14.36;100.00;100307.28;5092270;28;20185;-75
2023/06/16 03:35:17;;;;;;;6.70;6.10;;;;;;;14.34;100.00;100309.91;5091178;28;20182;-74
2023/06/16 03:37:43;;;;;;;6.90;6.20;;;;;;;14.35;100.00;100313.38;5088995;28;20203;-75
2023/06/16 03:40:09;;;;;;;7.63;6.20;;;;;;;14.33;100.00;100314.25;5073716;28;20606;-74
2023/06/16 03:42:35;;;;;;;6.93;6.30;;;;;;;14.36;100.00;100321.16;5081096;28;20294;-75
2023/06/16 03:45:00;;;;;;;8.10;7.17;;;;;;;14.39;100.00;100320.22;5080522;28;20181;-75
2023/06/16 03:47:26;;;;;;;6.30;5.80;;;;;;;14.41;100.00;100318.44;5078132;28;20229;-74
2023/06/16 03:49:53;;;;;;;6.97;6.30;;;;;;;14.44;99.54;100316.59;5073645;28;20201;-74
2023/06/16 03:52:19;;;;;;;6.30;5.80;;;;;;;14.51;98.80;100319.06;5090744;28;20400;-74
2023/06/16 03:54:45;;;;;;;6.10;5.60;;;;;;;14.64;99.05;100320.47;5088150;28;20228;-75
2023/06/16 03:57:10;;;;;;;6.10;5.50;;;;;;;14.85;98.40;100323.44;5079795;28;20566;-75
2023/06/16 03:59:36;;;;;;;9.13;5.57;;;;;;;15.06;97.17;100325.47;5090415;28;20232;-75
2023/06/16 04:02:07;;;;;;;9.00;5.80;;;;;;;15.29;96.24;100333.56;5093017;28;20179;-75
2023/06/16 04:04:36;;;;;;;10.70;6.07;;;;;;;15.41;95.72;100329.75;5088955;28;20215;-75
2023/06/16 04:07:05;;;;;;;6.23;5.30;;;;;;;15.48;94.69;100328.69;5101387;27;20234;-75
2023/06/16 04:09:31;;;;;;;6.33;5.53;;;;;;;15.47;93.77;100327.84;5102549;28;20763;-74
2023/06/16 04:11:56;;;;;;;6.10;5.60;;;;;;;15.48;93.99;100326.94;5079343;28;20177;-74
2023/06/16 04:14:22;;;;;;;5.47;5.00;;;;;;;15.53;93.36;100327.63;5080603;28;20277;-74
2023/06/16 04:16:47;;;;;;;6.30;5.67;;;;;;;15.58;93.24;100330.09;5076063;28;20743;-75
2023/06/16 04:19:13;;;;;;;8.17;5.70;;;;;;;15.57;91.44;100331.03;5068231;28;20643;-76
2023/06/16 04:21:41;;;;;;;6.07;5.57;;;;;;;15.69;90.83;100327.19;5086734;28;20183;-75
2023/06/16 04:24:10;;;;;;;5.53;5.03;;;;;;;15.83;90.43;100326.78;5087271;28;20271;-74
2023/06/16 04:26:37;;;;;;;5.37;4.97;;;;;;;15.91;90.28;100329.19;5079030;28;20192;-76
2023/06/16 04:29:03;;;;;;;5.47;5.07;;;;;;;15.96;89.52;100325.53;5085800;28;20212;-75
2023/06/16 04:31:31;;;;;;;5.70;5.30;;;;;;;16.05;88.56;100326.16;5090709;28;20597;-76
2023/06/16 04:33:58;;;;;;;10.80;5.60;;;;;;;16.09;88.21;100331.25;5086798;28;20227;-75
2023/06/16 04:36:25;;;;;;;5.57;5.17;;;;;;;16.19;88.03;100333.56;5080921;28;20436;-75
2023/06/16 04:38:51;;;;;;;5.00;4.60;;;;;;;16.35;87.51;100333.91;5075937;28;20209;-75
2023/06/16 04:41:16;;;;;;;5.80;5.20;;;;;;;16.68;86.46;100326.75;5077554;28;20209;-75
2023/06/16 04:43:42;;;;;;;5.27;4.87;;;;;;;17.30;84.48;100335.09;5079785;28;20189;-75
2023/06/16 04:46:08;;;;;;;5.10;4.60;;;;;;;17.92;82.81;100338.00;5083144;28;20783;-76
2023/06/16 04:48:33;;;;;;;5.30;4.80;;;;;;;18.50;82.48;100334.00;5097219;28;21077;-75
2023/06/16 04:50:59;;;;;;;5.30;4.80;;;;;;;19.08;82.05;100335.09;5088077;28;20209;-75
2023/06/16 04:53:25;;;;;;;7.47;5.17;;;;;;;19.65;80.87;100335.19;5087711;28;20661;-74
2023/06/16 04:55:50;;;;;;;5.60;5.10;;;;;;;20.22;79.12;100331.66;5085728;28;20184;-76
2023/06/16 04:58:16;;;;;;;6.03;5.53;;;;;;;20.69;77.94;100332.00;5083510;28;20219;-76
2023/06/16 05:00:42;;;;;;;7.83;4.97;;;;;;;21.19;76.33;100332.97;5094108;28;20753;-77
2023/06/16 05:03:08;;;;;;;7.07;5.00;;;;;;;21.62;75.08;100333.31;5085406;28;20177;-76
2023/06/16 05:05:33;;;;;;;7.80;4.60;;;;;;;22.03;74.13;100336.38;5088024;28;20185;-77
2023/06/16 05:07:59;;;;;;;8.23;5.03;;;;;;;22.39;72.97;100336.06;5085490;28;21016;-77
2023/06/16 05:10:25;;;;;;;5.10;4.57;;;;;;;22.79;71.30;100335.53;5082550;28;20209;-75
2023/06/16 05:12:51;;;;;;;5.80;4.43;;;;;;;23.12;70.88;100331.81;5088358;28;20255;-76
2023/06/16 05:15:20;;;;;;;4.30;3.87;;;;;;;23.49;70.20;100341.09;5076270;28;20279;-76
2023/06/16 05:17:46;;;;;;;6.40;4.37;;;;;;;23.91;69.52;100328.72;5086393;28;20230;-76
2023/06/16 05:20:12;;;;;;;4.77;4.37;;;;;;;24.29;68.83;100335.97;5085661;28;20249;-75
2023/06/16 05:22:37;;;;;;;4.90;4.50;;;;;;;24.69;67.84;100331.63;5086748;28;20185;-76
2023/06/16 05:25:03;;;;;;;5.33;4.07;;;;;;;25.02;67.26;100328.50;5084549;28;20185;-76
2023/06/16 05:27:29;;;;;;;7.37;4.53;;;;;;;25.38;66.08;100321.59;5081815;28;21013;-74
2023/06/16 05:29:55;;;;;;;5.20;4.77;;;;;;;25.71;65.80;100320.13;5067492;28;20202;-77
2023/06/16 05:32:21;;;;;;;5.73;4.23;;;;;;;26.03;64.97;100327.53;5080624;28;20744;-75
2023/06/16 05:34:51;;;;;;;5.22;4.28;;;;;;;26.36;63.57;100324.31;5075593;28;20264;-75
2023/06/16 05:37:18;;;;;;;5.25;3.83;;;;;;;26.61;62.89;100326.84;5086992;28;20581;-74
2023/06/16 05:39:45;;;;;;;4.53;4.05;;;;;;;26.91;62.52;100321.97;5084531;28;20205;-74
2023/06/16 05:42:14;;;;;;;7.15;4.57;;;;;;;27.18;61.77;100318.09;5092809;28;20210;-74
2023/06/16 05:44:40;;;;;;;8.00;4.60;;;;;;;27.37;61.92;100330.81;5085482;28;20264;-75
2023/06/16 05:47:06;;;;;;;4.18;3.78;;;;;;;27.68;61.42;100328.38;5081191;28;20199;-76
2023/06/16 05:49:31;;;;;;;6.43;4.20;;;;;;;28.05;60.48;100313.88;5085109;28;20208;-76
2023/06/16 05:51:58;;;;;;;4.57;3.92;;;;;;;28.27;60.46;100319.13;5079671;28;20319;-76
2023/06/16 05:54:23;;;;;;;4.97;4.05;;;;;;;28.79;58.47;100314.88;5092191;28;20182;-75
2023/06/16 05:56:48;;;;;;;4.95;4.15;;;;;;;28.96;57.91;100316.94;5090893;28;20609;-76
2023/06/16 05:59:14;;;;;;;4.85;4.32;;;;;;;29.16;57.57;100320.53;5087988;28;20895;-75
2023/06/16 06:01:39;;;;;;;4.68;4.28;;;;;;;29.21;57.12;100322.78;5099212;28;20200;-76
2023/06/16 06:04:04;;;;;;;7.85;4.28;;;;;;;29.27;56.88;100324.09;5088655;28;20183;-76
2023/06/16 06:06:30;;;;;;;4.45;4.10;;;;;;;29.39;56.60;100333.69;5092858;28;20197;-76
2023/06/16 06:08:55;;;;;;;5.10;4.07;;;;;;;29.15;56.62;100334.00;5092558;28;20193;-75
2023/06/16 06:11:21;;;;;;;4.63;4.13;;;;;;;29.50;55.43;100335.38;5090052;28;20712;-76
2023/06/16 06:13:46;;;;;;;4.45;4.15;;;;;;;29.70;54.44;100333.63;5072460;28;20199;-76
2023/06/16 06:16:12;;;;;;;4.82;4.30;;;;;;;29.84;55.16;100334.22;5082172;28;20486;-76
2023/06/16 06:18:37;;;;;;;5.35;4.15;;;;;;;30.18;54.70;100347.19;5087041;28;20929;-76
2023/06/16 06:21:02;;;;;;;4.30;3.90;;;;;;;30.27;54.42;100339.16;5085689;28;21054;-76
2023/06/16 06:23:28;;;;;;;5.53;4.72;;;;;;;30.49;52.92;100342.53;5082798;28;20620;-76
2023/06/16 06:25:53;;;;;;;4.95;4.30;;;;;;;30.71;52.76;100348.56;5086613;28;20671;-75
2023/06/16 06:28:18;;;;;;;8.32;4.35;;;;;;;30.71;52.89;100353.91;5084106;28;20184;-76
2023/06/16 06:30:44;;;;;;;9.32;5.32;;;;;;;30.55;52.56;100349.16;5084310;28;20228;-77
2023/06/16 06:33:09;;;;;;;12.82;4.82;;;;;;;30.56;53.13;100353.53;5086572;28;20178;-76
2023/06/16 06:35:35;;;;;;;7.40;5.78;;;;;;;30.68;51.28;100359.56;5085976;28;20185;-76
2023/06/16 06:38:01;;;;;;;9.00;5.40;;;;;;;29.98;52.56;100367.66;5089764;28;20672;-75
2023/06/16 06:40:27;;;;;;;18.08;6.60;;;;;;;29.76;52.99;100366.91;5082179;28;20212;-76
2023/06/16 06:42:53;;;;;;;11.57;6.80;;;;;;;29.11;53.56;100368.06;5084890;28;20184;-74
2023/06/16 06:45:18;;;;;;;9.02;5.80;;;;;;;27.81;55.01;100382.25;5081675;28;20184;-74
2023/06/16 06:47:43;;;;;;;9.02;6.20;;;;;;;27.34;55.70;100377.03;5084694;28;20181;-75
2023/06/16 06:50:09;;;;;;;11.23;6.35;;;;;;;28.15;56.00;100378.69;5082103;28;20205;-75
2023/06/16 06:52:34;;;;;;;10.65;6.25;;;;;;;27.34;56.27;100382.34;5075289;28;20189;-76
2023/06/16 06:55:00;;;;;;;9.80;6.63;;;;;;;28.00;56.17;100375.41;5077489;28;20264;-76
2023/06/16 06:57:26;;;;;;;7.70;5.30;;;;;;;27.65;56.23;100381.78;5086119;28;20292;-75
2023/06/16 06:59:51;;;;;;;8.05;7.13;;;;;;;28.27;55.81;100387.50;5086529;28;20248;-75
2023/06/16 07:02:16;;;;;;;9.13;5.82;;;;;;;28.13;55.53;100381.47;5101633;27;20181;-76
2023/06/16 07:04:42;;;;;;;7.88;6.22;;;;;;;28.02;55.87;100388.63;5097870;28;20191;-75
2023/06/16 07:07:08;;;;;;;6.68;6.00;;;;;;;27.54;56.25;100394.09;5095865;28;20184;-75
2023/06/16 07:09:34;;;;;;;6.22;5.53;;;;;;;28.09;56.09;100392.44;5094623;28;20208;-75
2023/06/16 07:12:00;;;;;;;6.20;5.60;;;;;;;28.33;55.08;100389.63;5079373;28;20606;-74
2023/06/16 07:14:26;;;;;;;6.75;6.03;;;;;;;27.91;55.40;100392.97;5071209;28;20212;-75
2023/06/16 07:16:52;;;;;;;8.40;6.28;;;;;;;28.17;54.99;100394.50;5082418;28;20610;-75
2023/06/16 07:19:17;;;;;;;7.03;6.13;;;;;;;27.66;55.16;100402.09;5088791;28;20208;-74
2023/06/16 07:21:43;;;;;;;9.20;6.35;;;;;;;28.24;54.11;100395.72;5099676;28;20204;-74
2023/06/16 07:24:08;;;;;;;7.45;5.85;;;;;;;28.87;53.76;100401.13;5091229;27;20197;-74
2023/06/16 07:26:34;;;;;;;8.63;6.10;;;;;;;28.92;53.16;100397.25;5082676;28;20657;-75
2023/06/16 07:29:00;;;;;;;6.97;5.70;;;;;;;29.26;54.01;100395.19;5094695;28;20416;-75
2023/06/16 07:31:26;;;;;;;6.35;5.43;;;;;;;29.15;53.10;100398.78;5086820;28;20206;-75
2023/06/16 07:33:51;;;;;;;8.88;6.50;;;;;;;29.37;51.78;100396.97;5083602;28;20551;-75
2023/06/16 07:36:17;;;;;;;5.65;5.07;;;;;;;28.53;52.40;100398.59;5090011;28;20213;-75
2023/06/16 07:38:42;;;;;;;5.75;5.05;;;;;;;29.07;52.14;100395.06;5086544;28;20216;-74
2023/06/16 07:41:07;;;;;;;7.05;5.78;;;;;;;28.78;51.59;100393.94;5081969;28;20213;-74
2023/06/16 07:43:33;;;;;;;5.97;5.38;;;;;;;28.62;51.24;100402.31;5087160;28;20321;-76
2023/06/16 07:45:59;;;;;;;6.72;4.95;;;;;;;28.81;50.94;100401.69;5091863;28;20689;-76
2023/06/16 07:48:24;;;;;;;6.68;5.13;;;;;;;28.43;49.64;100397.69;5092975;28;20304;-75
2023/06/16 07:50:50;;;;;;;8.45;4.50;;;;;;;28.57;50.04;100393.91;5076813;28;20712;-74
2023/06/16 07:53:16;;;;;;;5.47;4.30;;;;;;;29.09;50.09;100388.66;5082682;28;20545;-75
2023/06/16 07:55:41;;;;;;;4.53;4.13;;;;;;;29.64;49.65;100388.38;5091482;28;20188;-75
2023/06/16 07:58:06;;;;;;;5.05;4.38;;;;;;;29.59;49.20;100385.25;5091464;28;20235;-74
2023/06/16 08:00:32;;;;;;;8.00;5.25;;;;;;;29.54;51.57;100387.47;5074353;28;20213;-74
2023/06/16 08:02:57;;;;;;;5.00;4.60;;;;;;;29.93;50.03;100387.59;5091974;28;20286;-74
2023/06/16 08:05:22;;;;;;;4.97;4.35;;;;;;;30.13;49.72;100392.97;5076602;28;20194;-75
2023/06/16 08:07:48;;;;;;;7.68;4.90;;;;;;;29.92;50.94;100388.56;5088199;28;20180;-76
2023/06/16 08:10:19;;;;;;;8.20;5.72;;;;;;;28.95;52.13;100391.66;5093794;28;20637;-75
2023/06/16 08:12:44;;;;;;;7.00;5.15;;;;;;;29.29;52.56;100378.94;5093943;28;20254;-75
2023/06/16 08:15:10;;;;;;;6.47;4.70;;;;;;;29.45;53.94;100381.13;5078478;28;20224;-75
2023/06/16 08:17:36;;;;;;;5.25;4.75;;;;;;;29.79;52.65;100387.97;5083376;28;20201;-75
2023/06/16 08:20:04;;;;;;;6.00;5.20;;;;;;;30.25;51.08;100377.69;5077464;28;20208;-74
2023/06/16 08:22:29;;;;;;;7.47;4.88;;;;;;;29.89;52.23;100382.66;5082657;28;20220;-75
2023/06/16 08:24:55;;;;;;;6.88;5.22;;;;;;;29.84;52.53;100375.06;5081744;28;20680;-76
2023/06/16 08:27:21;;;;;;;4.97;4.57;;;;;;;29.67;53.55;100379.25;5072043;28;20185;-75
2023/06/16 08:29:47;;;;;;;5.60;4.82;;;;;;;29.96;53.04;100373.97;5088680;28;20202;-75
2023/06/16 08:32:13;;;;;;;5.82;5.05;;;;;;;30.03;52.69;100378.78;5076922;28;20188;-74
2023/06/16 08:34:38;;;;;;;6.55;5.30;;;;;;;30.22;52.34;100378.81;5095208;28;20186;-75
2023/06/16 08:37:04;;;;;;;6.57;4.93;;;;;;;30.09;52.82;100379.06;5086195;28;20220;-75
2023/06/16 08:39:30;;;;;;;7.63;5.13;;;;;;;30.04;52.62;100378.63;5092281;28;20208;-75
2023/06/16 08:41:57;;;;;;;7.25;5.10;;;;;;;30.08;51.76;100374.72;5085034;28;20261;-75
2023/06/16 08:44:24;;;;;;;5.75;4.60;;;;;;;29.91;52.51;100370.88;5081065;28;20212;-75
2023/06/16 08:46:50;;;;;;;9.18;5.35;;;;;;;29.86;52.69;100362.44;5087252;28;20201;-75
2023/06/16 08:49:17;;;;;;;6.65;5.03;;;;;;;29.95;52.72;100369.63;5076763;28;20230;-75
2023/06/16 08:51:52;;;;;;;6.53;5.22;;;;;;;29.96;53.17;100373.97;5089105;28;20191;-74
2023/06/16 08:54:25;;;;;;;6.85;4.82;;;;;;;29.83;51.18;100369.88;5089806;28;20204;-75
2023/06/16 08:56:51;;;;;;;9.98;5.55;;;;;;;28.62;51.12;100367.72;5082488;28;20226;-76
2023/06/16 08:59:19;;;;;;;14.43;5.32;;;;;;;27.07;51.08;100369.44;5087717;28;20594;-75
2023/06/16 09:01:46;;;;;;;10.18;4.95;;;;;;;26.36;52.29;100377.38;5082016;28;20183;-75
2023/06/16 09:04:13;;;;;;;6.40;4.30;;;;;;;26.96;51.60;100372.06;5085366;28;20560;-75
2023/06/16 09:06:44;;;;;;;7.13;4.35;;;;;;;26.70;49.99;100369.56;5082001;28;20177;-76
2023/06/16 09:09:09;;;;;;;4.60;3.90;;;;;;;26.81;50.10;100360.81;5082481;28;20238;-75
2023/06/16 09:11:35;;;;;;;5.20;4.00;;;;;;;27.11;50.36;100359.41;5092046;28;20217;-77
2023/06/16 09:14:11;;;;;;;4.33;3.90;;;;;;;27.26;51.48;100354.69;5078918;28;20189;-74
2023/06/16 09:16:39;;;;;;;5.70;4.47;;;;;;;26.91;50.57;100367.97;5086738;28;20191;-74
2023/06/16 09:19:09;;;;;;;7.53;4.47;;;;;;;26.48;50.50;100360.56;5082334;28;20197;-76
2023/06/16 09:21:35;;;;;;;8.27;4.53;;;;;;;26.13;50.10;100358.72;5080940;28;20180;-76
2023/06/16 09:24:01;;;;;;;4.63;3.97;;;;;;;25.60;49.23;100357.16;5082512;28;20671;-76
2023/06/16 09:26:35;;;;;;;4.40;4.00;;;;;;;25.78;48.51;100348.84;5082346;28;20281;-75
2023/06/16 09:29:01;;;;;;;7.63;4.30;;;;;;;25.51;50.23;100353.34;5081211;28;20208;-75
2023/06/16 09:31:28;;;;;;;7.23;4.50;;;;;;;25.50;48.49;100351.66;5082482;28;20201;-75
2023/06/16 09:34:03;;;;;;;4.20;3.47;;;;;;;25.50;47.53;100350.84;5097131;28;20711;-75
2023/06/16 09:36:28;;;;;;;4.70;3.67;;;;;;;25.26;46.49;100349.78;5089081;28;20187;-76
2023/06/16 09:38:54;;;;;;;5.20;3.40;;;;;;;25.56;47.17;100355.72;5097596;28;20204;-74
2023/06/16 09:41:19;;;;;;;5.57;3.77;;;;;;;25.87;48.20;100351.69;5090151;28;20296;-74
2023/06/16 09:43:45;;;;;;;9.03;4.57;;;;;;;25.97;48.07;100349.22;5090582;28;20656;-75
2023/06/16 09:46:12;;;;;;;6.10;3.90;;;;;;;26.15;48.67;100339.09;5087178;28;20185;-75
2023/06/16 09:48:48;;;;;;;5.97;3.13;;;;;;;25.87;49.20;100349.03;5082898;28;20634;-76
2023/06/16 09:51:18;;;;;;;4.20;3.80;;;;;;;26.09;49.94;100341.31;5082865;28;20246;-75
2023/06/16 09:53:46;;;;;;;7.60;3.93;;;;;;;26.29;49.19;100338.06;5079858;28;20185;-76
2023/06/16 09:56:15;;;;;;;4.27;3.87;;;;;;;26.21;49.60;100336.94;5085189;28;20214;-76
2023/06/16 09:58:45;;;;;;;3.40;3.10;;;;;;;26.33;48.66;100339.50;5094470;28;20308;-75
2023/06/16 10:01:13;;;;;;;6.80;4.10;;;;;;;26.21;48.89;100340.44;5092686;28;20211;-75
2023/06/16 10:03:39;;;;;;;5.97;3.80;;;;;;;25.77;48.08;100345.38;5086279;28;20218;-75
2023/06/16 10:06:13;;;;;;;4.33;3.63;;;;;;;26.12;49.21;100338.47;5084972;28;20276;-76
2023/06/16 10:08:40;;;;;;;6.87;4.37;;;;;;;25.96;49.13;100342.22;5091290;28;20611;-76
2023/06/16 10:11:09;;;;;;;4.00;3.60;;;;;;;26.30;47.78;100333.59;5093628;28;20675;-76
2023/06/16 10:13:36;;;;;;;4.00;3.70;;;;;;;26.44;47.61;100332.56;5094973;28;20570;-76
2023/06/16 10:16:05;;;;;;;5.30;3.67;;;;;;;25.99;48.16;100335.84;5085720;28;20265;-75
2023/06/16 10:18:31;;;;;;;4.93;3.90;;;;;;;25.89;48.53;100340.13;5086440;28;20439;-76
2023/06/16 10:20:57;;;;;;;7.77;3.90;;;;;;;25.84;48.62;100343.13;5083305;28;20203;-76
2023/06/16 10:23:22;;;;;;;7.67;3.63;;;;;;;25.54;48.71;100342.56;5099770;28;20278;-76
2023/06/16 10:25:49;;;;;;;7.97;4.03;;;;;;;25.99;48.92;100334.03;5097254;28;20564;-76
2023/06/16 10:28:15;;;;;;;5.57;3.83;;;;;;;25.55;48.60;100332.81;5076555;28;20222;-76
2023/06/16 10:30:43;;;;;;;5.87;3.90;;;;;;;25.67;48.63;100331.94;5083056;28;20225;-76
2023/06/16 10:33:17;;;;;;;4.50;3.80;;;;;;;26.08;48.61;100327.22;5088188;28;20410;-76
2023/06/16 10:35:55;;;;;;;4.27;3.87;;;;;;;26.33;49.04;100330.72;5096519;28;20267;-76
2023/06/16 10:38:36;;;;;;;5.27;4.20;;;;;;;25.85;49.26;100335.03;5100282;28;20207;-75
2023/06/16 10:41:03;;;;;;;4.90;4.40;;;;;;;25.69;49.19;100337.09;5078423;28;20212;-74
2023/06/16 10:43:28;;;;;;;5.03;4.40;;;;;;;25.89;48.90;100324.22;5094242;28;20276;-75
2023/06/16 10:46:24;;;;;;;5.70;3.97;;;;;;;25.97;48.64;100317.41;5082528;28;20272;-75
2023/06/16 10:49:04;;;;;;;5.00;4.23;;;;;;;25.82;49.70;100319.34;5084803;28;20933;-76
2023/06/16 10:51:43;;;;;;;4.77;4.30;;;;;;;25.91;50.27;100317.84;5077024;28;20736;-76
2023/06/16 10:54:09;;;;;;;5.50;4.33;;;;;;;26.44;50.88;100314.00;5079239;28;20185;-74
2023/06/16 10:56:59;;;;;;;3.90;3.60;;;;;;;26.79;50.36;100310.47;5085828;28;20196;-75
2023/06/16 10:59:25;;;;;;;7.03;4.30;;;;;;;27.01;51.04;100311.47;5066334;28;20278;-75
2023/06/16 11:01:55;;;;;;;4.13;3.50;;;;;;;27.18;51.37;100307.47;5075104;28;20667;-75
2023/06/16 11:04:21;;;;;;;5.07;3.77;;;;;;;27.20;50.86;100311.72;5086432;28;20185;-76
2023/06/16 11:07:04;;;;;;;4.90;4.50;;;;;;;26.93;49.99;100310.25;5091186;28;20546;-74
2023/06/16 11:09:30;;;;;;;5.93;4.00;;;;;;;26.83;51.19;100309.28;5089962;28;20523;-76
2023/06/16 11:11:59;;;;;;;4.50;3.73;;;;;;;27.26;50.25;100304.22;5080803;28;20214;-75
2023/06/16 11:14:26;;;;;;;5.30;4.40;;;;;;;27.47;50.58;100307.00;5088194;28;20199;-75
2023/06/16 11:16:51;;;;;;;6.50;4.67;;;;;;;27.66;50.14;100312.53;5095721;28;20193;-75
2023/06/16 11:19:18;;;;;;;4.53;4.07;;;;;;;27.89;50.26;100293.88;5090676;28;20254;-75
2023/06/16 11:21:43;;;;;;;4.30;3.90;;;;;;;28.16;47.85;100299.69;5092143;28;20195;-75
2023/06/16 11:24:10;;;;;;;4.70;4.17;;;;;;;27.95;48.04;100297.84;5084781;28;20227;-74